createdAt,value
2023-02-18T00:00:14.292Z,4.95
2023-02-18T00:02:42.985Z,4.82
2023-02-18T00:05:11.478Z,5.03
2023-02-18T00:07:41.247Z,4.43
2023-02-18T00:10:12.745Z,4.65
2023-02-18T00:12:41.230Z,4.70
2023-02-18T00:15:11.912Z,5.13
2023-02-18T00:17:40.207Z,5.18
2023-02-18T00:20:09.707Z,4.60
2023-02-18T00:22:38.046Z,4.97
2023-02-18T00:25:06.770Z,4.75
2023-02-18T00:27:35.051Z,4.78
2023-02-18T00:30:04.263Z,4.18
2023-02-18T00:32:36.186Z,4.65
2023-02-18T00:35:05.667Z,4.38
2023-02-18T00:37:35.380Z,4.20
2023-02-18T00:40:03.944Z,4.25
2023-02-18T00:42:32.295Z,4.47
2023-02-18T00:45:01.686Z,4.47
2023-02-18T00:47:30.006Z,4.63
2023-02-18T00:49:59.925Z,4.57
2023-02-18T00:52:28.323Z,4.53
2023-02-18T00:54:56.587Z,4.40
2023-02-18T00:57:25.976Z,4.43
2023-02-18T00:59:54.359Z,4.50
2023-02-18T01:02:22.717Z,4.43
2023-02-18T01:04:51.210Z,4.75
2023-02-18T01:07:20.944Z,4.60
2023-02-18T01:09:49.372Z,4.25
2023-02-18T01:12:18.568Z,4.18
2023-02-18T01:14:46.937Z,4.40
2023-02-18T01:17:15.282Z,4.35
2023-02-18T01:19:43.572Z,4.03
2023-02-18T01:22:11.935Z,4.22
2023-02-18T01:24:41.710Z,4.07
2023-02-18T01:27:10.057Z,4.10
2023-02-18T01:29:38.438Z,4.50
2023-02-18T01:32:07.386Z,4.10
2023-02-18T01:34:36.031Z,4.00
2023-02-18T01:37:04.411Z,4.18
2023-02-18T01:39:32.788Z,4.00
2023-02-18T01:42:02.646Z,3.70
2023-02-18T01:44:31.290Z,4.30
2023-02-18T01:46:59.702Z,3.30
2023-02-18T01:49:31.264Z,4.10
2023-02-18T01:52:04.146Z,3.92
2023-02-18T01:54:35.509Z,3.43
2023-02-18T01:57:08.491Z,3.80
2023-02-18T01:59:40.861Z,3.70
2023-02-18T02:02:12.948Z,3.60
2023-02-18T02:04:41.892Z,3.58
2023-02-18T02:07:10.895Z,3.70
2023-02-18T02:09:41.224Z,3.20
2023-02-18T02:12:29.999Z,3.50
2023-02-18T02:15:11.336Z,3.60
2023-02-18T02:17:51.591Z,3.15
2023-02-18T02:21:06.970Z,3.33
2023-02-18T02:23:58.760Z,3.35
2023-02-18T02:27:11.801Z,3.58
2023-02-18T02:30:17.032Z,3.60
2023-02-18T02:33:23.863Z,3.83
2023-02-18T02:35:58.683Z,3.00
2023-02-18T02:38:33.941Z,3.22
2023-02-18T02:41:17.406Z,3.15
2023-02-18T02:43:55.198Z,2.80
2023-02-18T02:46:30.110Z,3.15
2023-02-18T02:49:09.652Z,3.08
2023-02-18T02:51:48.631Z,3.00
2023-02-18T02:54:20.043Z,3.13
2023-02-18T02:56:48.806Z,2.83
2023-02-18T02:59:24.356Z,2.80
2023-02-18T03:02:10.347Z,2.80
2023-02-18T03:05:09.999Z,2.92
2023-02-18T03:08:02.920Z,2.80
2023-02-18T03:10:49.511Z,2.83
2023-02-18T03:13:27.267Z,3.20
2023-02-18T03:15:58.610Z,2.70
2023-02-18T03:18:35.939Z,2.72
2023-02-18T03:21:10.835Z,3.30
2023-02-18T03:23:45.922Z,3.00
2023-02-18T03:26:17.454Z,2.97
2023-02-18T03:28:47.329Z,2.92
2023-02-18T03:31:21.316Z,2.55
2023-02-18T03:33:54.290Z,3.17
2023-02-18T03:36:23.902Z,2.92
2023-02-18T03:39:00.514Z,2.83
2023-02-18T03:41:28.922Z,2.65
2023-02-18T03:44:04.083Z,2.83
2023-02-18T03:46:33.536Z,2.78
2023-02-18T03:49:02.117Z,2.50
2023-02-18T03:51:30.643Z,2.30
2023-02-18T03:54:00.472Z,2.42
2023-02-18T03:56:28.906Z,2.90
2023-02-18T03:58:57.209Z,2.30
2023-02-18T04:01:25.593Z,2.25
2023-02-18T04:03:55.629Z,2.50
2023-02-18T04:06:24.014Z,2.55
2023-02-18T04:08:52.398Z,2.72
2023-02-18T04:11:22.194Z,2.80
2023-02-18T04:13:50.478Z,2.47
2023-02-18T04:16:19.021Z,2.20
2023-02-18T04:18:47.460Z,2.38
2023-02-18T04:21:15.802Z,2.22
2023-02-18T04:23:44.069Z,2.10
2023-02-18T04:26:12.543Z,2.20
2023-02-18T04:28:42.280Z,1.95
2023-02-18T04:31:11.929Z,1.90
2023-02-18T04:33:40.373Z,2.20
2023-02-18T04:36:09.925Z,2.35
2023-02-18T04:38:38.894Z,2.15
2023-02-18T04:41:08.279Z,2.05
2023-02-18T04:43:36.691Z,2.53
2023-02-18T04:46:06.966Z,2.20
2023-02-18T04:48:36.284Z,2.15
2023-02-18T04:51:05.298Z,2.10
2023-02-18T04:53:33.611Z,2.03
2023-02-18T04:56:02.555Z,2.05
2023-02-18T04:58:30.962Z,2.08
2023-02-18T05:01:01.178Z,2.20
2023-02-18T05:03:31.743Z,2.08
2023-02-18T05:06:00.329Z,2.13
2023-02-18T05:08:28.679Z,1.98
2023-02-18T05:10:56.988Z,1.90
2023-02-18T05:13:25.412Z,1.90
2023-02-18T05:15:55.555Z,2.20
2023-02-18T05:18:23.889Z,2.08
2023-02-18T05:20:53.611Z,1.90
2023-02-18T05:23:21.988Z,1.90
2023-02-18T05:25:50.446Z,1.83
2023-02-18T05:28:18.790Z,1.83
2023-02-18T05:30:47.258Z,1.90
2023-02-18T05:33:15.724Z,2.10
2023-02-18T05:35:44.141Z,1.70
2023-02-18T05:38:14.213Z,2.00
2023-02-18T05:40:42.610Z,1.67
2023-02-18T05:43:10.916Z,1.55
2023-02-18T05:45:39.307Z,1.42
2023-02-18T05:48:07.719Z,1.70
2023-02-18T05:50:36.464Z,1.70
2023-02-18T05:53:04.837Z,1.52
2023-02-18T05:55:37.880Z,1.60
2023-02-18T05:58:06.387Z,1.67
2023-02-18T06:00:34.738Z,1.30
2023-02-18T06:03:03.200Z,1.20
2023-02-18T06:05:31.508Z,1.38
2023-02-18T06:07:59.916Z,1.30
2023-02-18T06:10:28.382Z,1.20
2023-02-18T06:12:58.276Z,1.10
2023-02-18T06:15:26.519Z,1.10
2023-02-18T06:17:55.807Z,1.00
2023-02-18T06:20:24.143Z,1.20
2023-02-18T06:22:52.641Z,0.90
2023-02-18T06:25:20.961Z,1.13
2023-02-18T06:27:49.314Z,1.05
2023-02-18T06:30:19.504Z,1.00
2023-02-18T06:32:47.918Z,1.10
2023-02-18T06:35:16.314Z,0.90
2023-02-18T06:37:45.444Z,0.98
2023-02-18T06:40:14.326Z,0.80
2023-02-18T06:42:42.630Z,0.80
2023-02-18T06:45:11.424Z,0.80
2023-02-18T06:47:41.208Z,0.85
2023-02-18T06:50:10.361Z,1.00
2023-02-18T06:52:38.845Z,0.63
2023-02-18T06:55:08.123Z,0.68
2023-02-18T06:57:36.704Z,0.40
2023-02-18T07:00:06.379Z,0.60
2023-02-18T07:02:34.800Z,0.63
2023-02-18T07:05:04.649Z,0.50
2023-02-18T07:07:33.092Z,0.63
2023-02-18T07:10:01.462Z,0.70
2023-02-18T07:12:29.840Z,0.80
2023-02-18T07:14:58.513Z,0.75
2023-02-18T07:17:27.127Z,0.70
2023-02-18T07:19:55.937Z,0.80
2023-02-18T07:22:25.791Z,0.77
2023-02-18T07:24:54.145Z,1.20
2023-02-18T07:27:23.443Z,1.02
2023-02-18T07:29:51.844Z,2.25
2023-02-18T07:32:21.989Z,1.35
2023-02-18T07:34:50.383Z,4.47
2023-02-18T07:37:18.711Z,2.60
2023-02-18T07:39:48.575Z,1.08
2023-02-18T07:42:16.965Z,1.35
2023-02-18T07:44:46.764Z,0.80
2023-02-18T07:47:17.363Z,1.08
2023-02-18T07:49:45.791Z,1.35
2023-02-18T07:52:14.252Z,1.02
2023-02-18T07:54:42.658Z,0.63
2023-02-18T07:57:12.529Z,1.05
2023-02-18T07:59:41.056Z,0.50
2023-02-18T08:02:16.784Z,1.42
2023-02-18T08:04:45.321Z,1.77
2023-02-18T08:07:15.393Z,3.40
2023-02-18T08:09:44.103Z,2.03
2023-02-18T08:12:13.966Z,0.90
2023-02-18T08:14:42.577Z,1.25
2023-02-18T08:17:10.979Z,2.15
2023-02-18T08:19:39.324Z,1.92
2023-02-18T08:22:07.739Z,0.98
2023-02-18T08:24:36.172Z,1.20
2023-02-18T08:27:04.805Z,0.70
2023-02-18T08:29:34.497Z,0.50
2023-02-18T08:32:03.247Z,0.40
2023-02-18T08:34:31.652Z,2.58
2023-02-18T08:37:00.110Z,1.52
2023-02-18T08:39:28.354Z,0.93
2023-02-18T08:41:58.316Z,0.30
2023-02-18T08:44:26.695Z,0.20
2023-02-18T08:46:56.529Z,0.40
2023-02-18T08:49:24.900Z,0.45
2023-02-18T08:51:53.321Z,0.40
2023-02-18T08:54:21.693Z,0.40
2023-02-18T08:56:50.298Z,0.30
2023-02-18T08:59:18.626Z,0.10
2023-02-18T09:01:47.088Z,0.40
2023-02-18T09:04:17.252Z,0.10
2023-02-18T09:06:46.962Z,0.10
2023-02-18T09:09:15.397Z,0.10
2023-02-18T09:11:44.643Z,0.10
2023-02-18T09:14:13.534Z,0.13
2023-02-18T09:16:42.432Z,0.20
2023-02-18T09:19:11.064Z,0.30
2023-02-18T09:21:40.970Z,0.20
2023-02-18T09:24:09.896Z,0.17
2023-02-18T09:26:39.725Z,0.32
2023-02-18T09:29:08.437Z,0.40
2023-02-18T09:31:38.202Z,0.25
2023-02-18T09:34:07.443Z,0.45
2023-02-18T09:36:35.950Z,0.40
2023-02-18T09:39:05.769Z,0.50
2023-02-18T09:41:40.834Z,0.50
2023-02-18T09:44:14.796Z,0.32
2023-02-18T09:46:50.722Z,0.90
2023-02-18T09:49:22.867Z,0.90
2023-02-18T09:51:51.640Z,1.10
2023-02-18T09:54:22.536Z,1.08
2023-02-18T09:56:52.109Z,1.05
2023-02-18T09:59:23.471Z,1.50
2023-02-18T10:01:54.697Z,0.73
2023-02-18T10:04:30.494Z,1.00
2023-02-18T10:06:59.894Z,0.82
2023-02-18T10:09:35.180Z,1.00
2023-02-18T10:12:14.758Z,0.60
2023-02-18T10:14:44.673Z,0.70
2023-02-18T10:17:16.650Z,0.80
2023-02-18T10:19:47.540Z,0.77
2023-02-18T10:22:17.754Z,0.60
2023-02-18T10:24:51.732Z,0.70
2023-02-18T10:27:28.710Z,1.20
2023-02-18T10:30:00.986Z,0.80
2023-02-18T10:32:34.244Z,0.90
2023-02-18T10:35:15.442Z,0.75
2023-02-18T10:37:58.844Z,0.90
2023-02-18T10:40:37.076Z,0.95
2023-02-18T10:43:15.032Z,0.80
2023-02-18T10:45:50.322Z,0.80
2023-02-18T10:48:37.626Z,0.82
2023-02-18T10:51:16.881Z,1.13
2023-02-18T10:53:48.075Z,0.90
2023-02-18T10:59:20.667Z,1.17
2023-02-18T11:01:57.362Z,1.00
2023-02-18T11:04:29.707Z,1.17
2023-02-18T11:07:05.332Z,0.88
2023-02-18T11:09:41.557Z,0.70
2023-02-18T11:12:19.120Z,0.80
2023-02-18T11:14:51.544Z,0.95
2023-02-18T11:17:28.200Z,0.93
2023-02-18T11:19:58.445Z,0.90
2023-02-18T11:22:30.318Z,1.00
2023-02-18T11:25:00.362Z,0.80
2023-02-18T11:27:33.921Z,0.90
2023-02-18T11:30:07.168Z,0.88
2023-02-18T11:32:38.324Z,0.80
2023-02-18T11:35:07.406Z,0.80
2023-02-18T11:37:37.811Z,0.98
2023-02-18T11:40:07.475Z,0.90
2023-02-18T11:42:35.918Z,0.75
2023-02-18T11:45:06.065Z,0.68
2023-02-18T11:47:36.138Z,0.63
2023-02-18T11:50:16.936Z,0.65
2023-02-18T11:52:47.221Z,0.60
2023-02-18T11:55:21.583Z,0.70
2023-02-18T11:57:56.528Z,0.60
2023-02-18T12:00:40.305Z,0.68
2023-02-18T12:03:16.894Z,0.60
2023-02-18T12:05:47.033Z,0.80
2023-02-18T12:08:21.821Z,2.17
2023-02-18T12:10:53.198Z,1.45
2023-02-18T12:13:27.777Z,0.57
2023-02-18T12:16:09.994Z,1.10
2023-02-18T12:18:54.676Z,0.50
2023-02-18T12:21:47.093Z,1.45
2023-02-18T12:24:30.264Z,0.70
2023-02-18T12:27:08.503Z,0.40
2023-02-18T12:29:58.265Z,0.20
2023-02-18T12:32:37.759Z,0.80
2023-02-18T12:35:23.281Z,0.70
2023-02-18T12:38:17.649Z,0.80
2023-02-18T12:43:34.913Z,0.75
2023-02-18T12:46:43.144Z,0.60
2023-02-18T12:49:22.862Z,0.40
2023-02-18T12:52:03.925Z,0.98
2023-02-18T12:54:47.305Z,0.50
2023-02-18T12:57:37.140Z,0.60
2023-02-18T13:00:31.105Z,0.35
2023-02-18T13:03:37.205Z,0.40
2023-02-18T13:06:17.296Z,0.50
2023-02-18T13:08:54.674Z,0.70
2023-02-18T13:11:34.170Z,0.57
2023-02-18T13:14:09.316Z,0.32
2023-02-18T13:16:39.693Z,0.40
2023-02-18T13:19:19.390Z,0.38
2023-02-18T13:21:52.174Z,0.50
2023-02-18T13:24:28.887Z,0.40
2023-02-18T13:27:05.283Z,0.40
2023-02-18T13:29:40.802Z,0.47
2023-02-18T13:32:19.083Z,0.70
2023-02-18T13:34:52.710Z,1.27
2023-02-18T13:37:33.668Z,0.60
2023-02-18T13:40:03.185Z,0.50
2023-02-18T13:42:37.627Z,0.60
2023-02-18T13:45:22.527Z,0.80
2023-02-18T13:47:51.626Z,1.10
2023-02-18T13:50:43.019Z,0.77
2023-02-18T13:53:23.392Z,0.40
2023-02-18T13:56:02.443Z,0.50
2023-02-18T13:58:39.210Z,0.63
2023-02-18T14:01:15.271Z,0.80
2023-02-18T14:04:01.312Z,0.60
2023-02-18T14:06:32.571Z,0.47
2023-02-18T14:09:34.319Z,0.70
2023-02-18T14:12:25.718Z,0.50
2023-02-18T14:14:54.182Z,0.52
2023-02-18T14:17:43.780Z,0.57
2023-02-18T14:20:44.493Z,0.40
2023-02-18T14:23:41.396Z,0.50
2023-02-18T14:26:19.423Z,0.45
2023-02-18T14:28:56.099Z,0.40
2023-02-18T14:31:46.979Z,0.40
2023-02-18T14:34:47.443Z,0.40
2023-02-18T14:37:44.194Z,0.60
2023-02-18T14:40:25.918Z,0.50
2023-02-18T14:43:02.730Z,0.40
2023-02-18T14:45:51.782Z,0.60
2023-02-18T14:48:40.698Z,0.68
2023-02-18T14:51:10.161Z,0.50
2023-02-18T14:53:44.675Z,0.70
2023-02-18T14:56:16.790Z,0.63
2023-02-18T14:58:48.919Z,0.70
2023-02-18T15:01:21.449Z,0.50
2023-02-18T15:03:51.499Z,0.68
2023-02-18T15:06:25.851Z,0.38
2023-02-18T15:08:54.162Z,0.50
2023-02-18T15:11:25.500Z,0.50
2023-02-18T15:13:54.579Z,0.60
2023-02-18T15:16:31.837Z,0.50
2023-02-18T15:19:04.055Z,0.52
2023-02-18T15:21:33.831Z,1.35
2023-02-18T15:24:08.109Z,0.50
2023-02-18T15:26:38.650Z,0.50
2023-02-18T15:29:07.807Z,0.50
2023-02-18T15:31:40.929Z,0.70
2023-02-18T15:34:34.323Z,0.50
2023-02-18T15:37:03.959Z,1.02
2023-02-18T15:39:33.790Z,0.63
2023-02-18T15:42:04.386Z,0.57
2023-02-18T15:44:35.406Z,0.90
2023-02-18T15:47:08.889Z,0.50
2023-02-18T15:49:39.932Z,1.70
2023-02-18T15:52:10.033Z,0.60
2023-02-18T15:54:42.553Z,0.52
2023-02-18T15:57:16.420Z,1.20
2023-02-18T15:59:47.490Z,1.17
2023-02-18T16:02:24.077Z,0.60
2023-02-18T16:04:56.235Z,0.40
2023-02-18T16:07:27.458Z,0.30
2023-02-18T16:10:21.650Z,0.40
2023-02-18T16:12:54.163Z,0.50
2023-02-18T16:15:27.954Z,0.30
2023-02-18T16:20:32.027Z,0.40
2023-02-18T16:23:05.387Z,0.20
2023-02-18T16:25:43.336Z,0.90
2023-02-18T16:28:16.566Z,0.40
2023-02-18T16:30:46.701Z,0.73
2023-02-18T16:33:16.595Z,2.17
2023-02-18T16:35:50.366Z,1.30
2023-02-18T16:38:21.278Z,1.30
2023-02-18T16:40:50.180Z,1.00
2023-02-18T16:43:20.541Z,0.60
2023-02-18T16:45:51.724Z,0.30
2023-02-18T16:48:28.139Z,0.30
2023-02-18T16:50:56.999Z,0.30
2023-02-18T16:53:25.468Z,0.40
2023-02-18T16:55:53.767Z,0.30
2023-02-18T16:58:22.120Z,0.25
2023-02-18T17:00:52.170Z,0.22
2023-02-18T17:03:22.718Z,0.30
2023-02-18T17:05:51.129Z,0.30
2023-02-18T17:08:23.358Z,0.30
2023-02-18T17:10:53.259Z,0.45
2023-02-18T17:13:23.672Z,0.20
2023-02-18T17:15:53.995Z,0.40
2023-02-18T17:18:25.137Z,0.40
2023-02-18T17:20:54.799Z,0.30
2023-02-18T17:23:25.235Z,0.70
2023-02-18T17:25:54.569Z,0.60
2023-02-18T17:28:23.321Z,0.93
2023-02-18T17:30:57.834Z,0.50
2023-02-18T17:33:27.677Z,0.57
2023-02-18T17:35:56.032Z,0.73
2023-02-18T17:38:24.496Z,0.30
2023-02-18T17:40:52.920Z,0.30
2023-02-18T17:43:23.871Z,0.20
2023-02-18T17:45:54.335Z,0.45
2023-02-18T17:48:23.636Z,0.30
2023-02-18T17:50:53.877Z,0.30
2023-02-18T17:53:22.720Z,0.30
2023-02-18T17:55:51.679Z,0.50
2023-02-18T17:58:20.229Z,1.10
2023-02-18T18:00:51.759Z,0.50
2023-02-18T18:03:20.464Z,0.40
2023-02-18T18:05:52.121Z,0.30
2023-02-18T18:08:22.228Z,0.30
2023-02-18T18:10:52.687Z,0.43
2023-02-18T18:13:23.649Z,0.68
2023-02-18T18:15:53.344Z,0.40
2023-02-18T18:18:22.458Z,0.57
2023-02-18T18:20:53.599Z,0.40
2023-02-18T18:23:24.023Z,0.40
2023-02-18T18:25:54.371Z,0.30
2023-02-18T18:28:22.748Z,0.30
2023-02-18T18:30:53.634Z,0.40
2023-02-18T18:33:25.736Z,0.40
2023-02-18T18:35:56.080Z,0.30
2023-02-18T18:38:27.496Z,0.40
2023-02-18T18:40:56.939Z,0.22
2023-02-18T18:43:26.973Z,0.30
2023-02-18T18:45:56.104Z,0.50
2023-02-18T18:48:25.535Z,0.70
2023-02-18T18:50:55.035Z,0.40
2023-02-18T18:53:26.273Z,0.50
2023-02-18T18:55:56.158Z,0.47
2023-02-18T18:58:24.796Z,0.30
2023-02-18T19:00:56.234Z,0.40
2023-02-18T19:03:25.740Z,0.35
2023-02-18T19:05:54.814Z,0.40
2023-02-18T19:08:23.934Z,0.40
2023-02-18T19:10:55.039Z,0.50
2023-02-18T19:13:24.672Z,0.30
2023-02-18T19:16:01.453Z,0.30
2023-02-18T19:18:30.195Z,0.40
2023-02-18T19:20:58.488Z,0.40
2023-02-18T19:23:26.971Z,0.40
2023-02-18T19:25:56.767Z,0.40
2023-02-18T19:28:25.213Z,0.30
2023-02-18T19:30:53.602Z,0.50
2023-02-18T19:33:22.053Z,0.40
2023-02-18T19:35:50.699Z,0.40
2023-02-18T19:38:20.835Z,0.40
2023-02-18T19:40:49.196Z,0.22
2023-02-18T19:43:19.028Z,2.35
2023-02-18T19:45:48.473Z,0.40
2023-02-18T19:48:17.427Z,0.30
2023-02-18T19:50:45.899Z,0.32
2023-02-18T19:53:14.277Z,0.30
2023-02-18T19:55:42.962Z,0.40
2023-02-18T19:58:11.226Z,0.25
2023-02-18T20:00:43.804Z,0.20
2023-02-18T20:03:12.370Z,0.40
2023-02-18T20:05:40.740Z,0.38
2023-02-18T20:08:09.281Z,0.20
2023-02-18T20:10:37.815Z,0.88
2023-02-18T20:13:11.387Z,0.40
2023-02-18T20:15:44.248Z,0.40
2023-02-18T20:18:12.581Z,0.27
2023-02-18T20:20:40.954Z,0.40
2023-02-18T20:23:09.308Z,0.52
2023-02-18T20:25:40.103Z,0.70
2023-02-18T20:28:08.477Z,0.75
2023-02-18T20:30:37.006Z,0.90
2023-02-18T20:33:06.839Z,1.10
2023-02-18T20:35:35.202Z,1.40
2023-02-18T20:38:03.839Z,1.27
2023-02-18T20:40:32.132Z,1.20
2023-02-18T20:43:00.754Z,1.33
2023-02-18T20:45:29.152Z,1.23
2023-02-18T20:47:57.488Z,1.00
2023-02-18T20:50:27.252Z,1.30
2023-02-18T20:52:55.608Z,1.30
2023-02-18T20:55:24.277Z,1.35
2023-02-18T20:57:52.675Z,1.58
2023-02-18T21:00:21.071Z,1.60
2023-02-18T21:02:49.582Z,1.48
2023-02-18T21:05:19.691Z,1.40
2023-02-18T21:07:49.763Z,1.60
2023-02-18T21:10:18.348Z,1.45
2023-02-18T21:12:46.694Z,1.40
2023-02-18T21:15:15.142Z,1.40
2023-02-18T21:17:43.501Z,1.95
2023-02-18T21:20:12.208Z,1.35
2023-02-18T21:22:40.559Z,1.20
2023-02-18T21:25:10.618Z,1.20
2023-02-18T21:27:39.011Z,1.50
2023-02-18T21:30:09.364Z,1.70
2023-02-18T21:32:37.791Z,1.60
2023-02-18T21:35:06.428Z,1.70
2023-02-18T21:37:36.001Z,1.42
2023-02-18T21:40:04.356Z,1.83
2023-02-18T21:42:34.769Z,2.00
2023-02-18T21:45:03.168Z,1.95
2023-02-18T21:47:31.607Z,1.65
2023-02-18T21:49:59.848Z,1.70
2023-02-18T21:52:28.344Z,1.95
2023-02-18T21:54:56.753Z,2.10
2023-02-18T21:57:25.597Z,1.88
2023-02-18T21:59:55.955Z,2.25
2023-02-18T22:02:26.615Z,1.90
2023-02-18T22:04:55.237Z,1.90
2023-02-18T22:07:26.272Z,2.08
2023-02-18T22:09:55.749Z,2.38
2023-02-18T22:12:25.352Z,2.05
2023-02-18T22:14:55.368Z,1.80
2023-02-18T22:17:24.062Z,2.03
2023-02-18T22:19:52.380Z,2.90
2023-02-18T22:22:20.728Z,2.00
2023-02-18T22:24:49.391Z,1.80
2023-02-18T22:27:19.566Z,1.35
2023-02-18T22:29:48.489Z,1.30
2023-02-18T22:32:18.340Z,1.20
2023-02-18T22:34:46.852Z,0.90
2023-02-18T22:37:15.536Z,0.60
2023-02-18T22:39:43.884Z,0.63
2023-02-18T22:42:12.225Z,0.60
2023-02-18T22:44:40.625Z,0.65
2023-02-18T22:47:09.529Z,0.60
2023-02-18T22:49:39.250Z,0.60
2023-02-18T22:52:07.548Z,0.52
2023-02-18T22:54:36.084Z,2.45
2023-02-18T22:57:04.590Z,0.57
2023-02-18T22:59:33.036Z,0.30
2023-02-18T23:02:01.569Z,0.45
2023-02-18T23:04:29.872Z,0.40
2023-02-18T23:07:00.913Z,0.40
2023-02-18T23:09:29.276Z,0.40
2023-02-18T23:11:59.265Z,0.45
2023-02-18T23:14:30.690Z,0.45
2023-02-18T23:17:17.803Z,0.38
2023-02-18T23:19:48.442Z,0.60
2023-02-18T23:22:20.175Z,0.90
2023-02-18T23:24:49.749Z,1.10
2023-02-18T23:27:18.750Z,1.65
2023-02-18T23:29:47.306Z,1.70
2023-02-18T23:32:16.078Z,1.80
2023-02-18T23:34:44.397Z,1.92
2023-02-18T23:37:12.909Z,1.77
2023-02-18T23:39:45.235Z,2.10
2023-02-18T23:42:15.882Z,1.80
2023-02-18T23:44:44.219Z,1.80
2023-02-18T23:47:12.572Z,1.40
2023-02-18T23:49:40.964Z,1.33
2023-02-18T23:52:09.498Z,1.30
2023-02-18T23:54:37.783Z,1.30
2023-02-18T23:57:07.638Z,1.90
2023-02-18T23:59:36.306Z,1.55
